Time;durP1;ratioP1;P1;durP2;ratioP2;P2;SDS_P1;SDS_P2;PMS_P1;PMS_P2;Temp;Humidity;BMP_temperature;BMP_pressure;BME280_temperature;BME280_humidity;BME280_pressure;Samples;Min_cycle;Max_cycle;Signal;HPM_P1;HPM_P2
2022/12/31 00:01:13;;;;;;;1.92;1.75;;;;;;;5.41;94.23;99867.34;4440892;32;34394;-72
2022/12/31 00:03:43;;;;;;;4.75;2.87;;;;;;;5.47;93.88;99867.47;4453749;32;36029;-72
2022/12/31 00:06:18;;;;;;;1.25;1.25;;;;;;;5.34;93.18;99875.81;4454775;32;35101;-71
2022/12/31 00:08:46;;;;;;;1.58;1.48;;;;;;;5.37;95.20;99869.84;4453640;32;34476;-71
2022/12/31 00:11:15;;;;;;;1.40;1.30;;;;;;;5.29;95.48;99873.16;4454685;32;34269;-71
2022/12/31 00:13:45;;;;;;;4.53;4.15;;;;;;;5.36;95.02;99879.28;4453484;32;33826;-71
2022/12/31 00:16:17;;;;;;;4.30;2.70;;;;;;;5.43;94.49;99873.38;4454615;32;34971;-71
2022/12/31 00:18:47;;;;;;;1.12;1.10;;;;;;;4.98;96.26;99894.91;4454699;32;34376;-71
2022/12/31 00:21:16;;;;;;;1.58;1.48;;;;;;;5.34;96.51;99887.88;4453477;32;33624;-72
2022/12/31 00:23:45;;;;;;;13.15;5.45;;;;;;;4.82;97.67;99897.97;4454626;32;33638;-71
2022/12/31 00:26:20;;;;;;;3.42;3.17;;;;;;;5.40;95.68;99900.88;4454614;32;35112;-71
2022/12/31 00:28:48;;;;;;;2.20;2.10;;;;;;;5.45;94.28;99901.84;4453453;32;35192;-72
2022/12/31 00:31:17;;;;;;;1.95;1.60;;;;;;;5.67;93.16;99900.53;4454562;32;33416;-71
2022/12/31 00:33:46;;;;;;;1.15;1.15;;;;;;;5.44;94.27;99900.13;4454553;32;33760;-71
2022/12/31 00:36:23;;;;;;;4.32;3.87;;;;;;;5.77;93.60;99905.03;4454426;32;36015;-71
2022/12/31 00:38:51;;;;;;;;;;;;;;;5.39;94.30;99902.59;4453663;32;34328;-71
2022/12/31 00:41:21;;;;;;;2.80;2.60;;;;;;;5.79;93.40;99903.34;4453438;32;33407;-71
2022/12/31 00:43:50;;;;;;;9.18;3.00;;;;;;;5.59;93.84;99905.53;4453183;32;33968;-71
2022/12/31 00:46:19;;;;;;;2.03;1.60;;;;;;;5.48;94.99;99899.31;4454446;32;35023;-72
2022/12/31 00:48:47;;;;;;;4.10;3.67;;;;;;;5.39;94.55;99901.72;4454079;32;34511;-71
2022/12/31 00:51:18;;;;;;;1.80;1.70;;;;;;;5.62;93.15;99907.34;4454538;32;33813;-71
2022/12/31 00:53:47;;;;;;;2.05;1.92;;;;;;;5.58;93.09;99910.72;4453267;32;33922;-72
2022/12/31 00:56:18;;;;;;;4.57;4.25;;;;;;;5.23;94.37;99926.38;4454214;32;35911;-71
2022/12/31 00:58:46;;;;;;;5.07;4.68;;;;;;;5.61;94.20;99921.97;4454179;32;35274;-71
2022/12/31 01:01:33;;;;;;;7.57;3.62;;;;;;;5.85;91.69;99918.06;4454068;32;33518;-71
2022/12/31 01:04:05;;;;;;;4.03;3.28;;;;;;;5.76;92.40;99911.03;4454226;32;33927;-72
2022/12/31 01:06:33;;;;;;;3.28;2.70;;;;;;;5.62;93.71;99922.84;4454104;32;35239;-71
2022/12/31 01:09:02;;;;;;;2.70;2.50;;;;;;;5.80;92.84;99920.56;4454138;32;35226;-71
2022/12/31 01:11:31;;;;;;;1.83;1.73;;;;;;;5.73;91.94;99908.38;4454104;32;33325;-71
2022/12/31 01:14:00;;;;;;;5.70;4.68;;;;;;;5.77;92.22;99912.78;4453935;32;34045;-72
2022/12/31 01:16:35;;;;;;;1.65;1.55;;;;;;;5.30;93.68;99915.34;4453869;32;35112;-71
2022/12/31 01:19:07;;;;;;;9.57;6.57;;;;;;;6.01;91.09;99927.00;4452837;32;35197;-71
2022/12/31 01:21:37;;;;;;;5.68;4.82;;;;;;;5.66;92.98;99929.78;4453904;32;34169;-71
2022/12/31 01:24:07;;;;;;;43.60;5.60;;;;;;;5.63;92.58;99920.28;4453909;32;34016;-72
2022/12/31 01:26:36;;;;;;;1.02;1.02;;;;;;;5.90;91.80;99929.38;4455650;32;35032;-72
2022/12/31 01:29:05;;;;;;;2.65;1.87;;;;;;;5.86;90.34;99928.44;4455857;32;34580;-71
2022/12/31 01:31:35;;;;;;;1.00;1.00;;;;;;;5.65;92.66;99928.06;4455826;32;33320;-72
2022/12/31 01:34:05;;;;;;;1.45;1.35;;;;;;;5.63;93.37;99919.38;4455891;32;34698;-72
2022/12/31 01:36:34;;;;;;;3.17;2.90;;;;;;;5.81;90.90;99937.81;4455759;32;35775;-71
2022/12/31 01:39:04;;;;;;;1.48;1.37;;;;;;;5.66;93.06;99934.94;4454561;32;34687;-71
2022/12/31 01:41:35;;;;;;;5.12;2.05;;;;;;;5.81;91.63;99939.56;4455691;32;34660;-72
2022/12/31 01:44:12;;;;;;;3.17;2.25;;;;;;;5.74;92.04;99937.69;4455823;32;34816;-72
2022/12/31 01:46:59;;;;;;;1.05;1.05;;;;;;;5.97;91.55;99930.38;4455587;32;36005;-71
2022/12/31 01:49:40;;;;;;;1.17;1.12;;;;;;;5.68;91.04;99933.25;4454625;32;34581;-71
2022/12/31 01:52:48;;;;;;;1.35;1.35;;;;;;;6.08;91.11;99929.72;4455806;32;33439;-71
2022/12/31 01:55:26;;;;;;;2.78;2.40;;;;;;;6.03;90.69;99925.31;4407253;32;33811;-71
2022/12/31 01:58:05;;;;;;;7.22;4.75;;;;;;;5.91;91.00;99931.09;4407496;32;35082;-72
2022/12/31 02:00:34;;;;;;;1.98;1.77;;;;;;;5.88;91.58;99921.59;4438153;32;35248;-71
2022/12/31 02:03:04;;;;;;;2.80;2.40;;;;;;;5.96;90.90;99928.62;4455754;32;33587;-71
2022/12/31 02:05:35;;;;;;;2.42;2.22;;;;;;;6.04;90.70;99937.41;4455544;32;34032;-71
2022/12/31 02:08:05;;;;;;;3.62;2.70;;;;;;;6.03;89.62;99941.69;4455555;32;35097;-71
2022/12/31 02:10:33;;;;;;;3.83;3.50;;;;;;;5.93;90.38;99924.25;4454327;32;35200;-71
2022/12/31 02:13:01;;;;;;;5.75;4.18;;;;;;;5.60;91.50;99932.28;4454327;32;34271;-72
2022/12/31 02:15:48;;;;;;;4.32;4.03;;;;;;;5.38;93.58;99944.75;4454387;32;33800;-71
2022/12/31 02:18:26;;;;;;;4.87;2.90;;;;;;;5.67;93.15;99936.72;4455476;32;35095;-71
2022/12/31 02:20:57;;;;;;;4.68;3.75;;;;;;;5.70;92.64;99941.94;4455545;32;34549;-71
2022/12/31 02:23:55;;;;;;;18.30;5.68;;;;;;;5.86;92.42;99949.13;4455595;32;33549;-71
2022/12/31 02:26:49;;;;;;;2.40;2.25;;;;;;;5.45;93.23;99959.56;4455613;32;33938;-71
2022/12/31 02:29:48;;;;;;;2.03;1.12;;;;;;;5.62;93.30;99938.34;4455434;32;35824;-72
2022/12/31 02:32:46;;;;;;;0.52;0.52;;;;;;;6.19;89.73;99941.94;4455529;32;35333;-71
2022/12/31 02:35:47;;;;;;;2.25;2.08;;;;;;;5.69;92.19;99937.59;4454368;32;33617;-72
2022/12/31 02:38:24;;;;;;;3.87;3.50;;;;;;;5.76;91.94;99942.03;4444504;32;33882;-71
2022/12/31 02:40:53;;;;;;;2.03;1.92;;;;;;;5.87;92.26;99957.75;4454190;32;35973;-71
2022/12/31 02:43:22;;;;;;;1.23;1.17;;;;;;;5.78;92.19;99958.44;4454183;32;34325;-71
2022/12/31 02:46:19;;;;;;;1.17;1.15;;;;;;;5.99;91.20;99954.53;4455649;32;34269;-71
2022/12/31 02:49:25;;;;;;;2.93;2.73;;;;;;;6.08;90.31;99954.69;4453992;32;34794;-71
2022/12/31 02:51:55;;;;;;;1.73;1.33;;;;;;;6.05;90.46;99944.28;4403383;32;35094;-72
2022/12/31 02:54:50;;;;;;;1.73;1.52;;;;;;;5.91;91.61;99943.16;4454156;32;34331;-71
2022/12/31 02:57:24;;;;;;;0.70;0.70;;;;;;;5.81;91.55;99937.81;4455304;32;34268;-72
2022/12/31 03:02:46;;;;;;;1.87;1.73;;;;;;;5.77;93.42;99938.63;4454099;32;36038;-71
2022/12/31 03:05:17;;;;;;;1.40;1.30;;;;;;;5.70;93.29;99935.06;4454013;32;34509;-71
2022/12/31 03:07:45;;;;;;;3.87;1.87;;;;;;;5.24;94.57;99928.09;4455239;32;32496;-71
2022/12/31 03:10:13;;;;;;;2.78;2.58;;;;;;;5.56;95.36;99928.75;4455165;32;33973;-71
2022/12/31 03:12:46;;;;;;;1.35;1.33;;;;;;;5.69;92.78;99946.22;4455157;32;35779;-71
2022/12/31 03:15:21;;;;;;;1.23;1.23;;;;;;;6.05;90.57;99915.84;4455071;32;34442;-71
2022/12/31 03:18:09;;;;;;;24.57;5.10;;;;;;;5.98;90.98;99908.84;4455169;32;33576;-72
2022/12/31 03:23:37;;;;;;;2.90;2.35;;;;;;;5.27;94.69;99930.75;4454106;32;35051;-71
2022/12/31 03:26:10;;;;;;;1.02;1.02;;;;;;;5.13;96.33;99925.31;4453955;32;34585;-71
2022/12/31 03:28:42;;;;;;;0.85;0.85;;;;;;;5.48;94.84;99928.59;4455158;32;33740;-71
2022/12/31 03:31:10;;;;;;;9.07;6.53;;;;;;;5.34;95.41;99919.72;4455132;32;33017;-71
2022/12/31 03:33:40;;;;;;;1.67;1.58;;;;;;;5.65;94.29;99917.72;4454956;32;35138;-71
2022/12/31 03:36:12;;;;;;;2.58;2.25;;;;;;;5.64;93.56;99915.97;4455057;32;34311;-71
2022/12/31 03:38:40;;;;;;;2.15;1.98;;;;;;;5.62;93.20;99917.66;4455097;32;32972;-71
2022/12/31 03:41:10;;;;;;;1.42;1.25;;;;;;;5.36;93.84;99923.19;4454887;32;33935;-71
2022/12/31 03:43:38;;;;;;;5.87;2.90;;;;;;;5.81;93.39;99927.50;4453748;32;35045;-72
2022/12/31 03:46:08;;;;;;;1.90;1.77;;;;;;;5.67;94.09;99936.72;4455030;32;33663;-72
2022/12/31 03:48:38;;;;;;;2.60;2.47;;;;;;;6.09;92.10;99915.09;4454547;32;34258;-71
2022/12/31 03:51:06;;;;;;;0.93;0.93;;;;;;;6.03;92.18;99930.47;4454773;32;33830;-71
2022/12/31 03:53:34;;;;;;;1.15;1.15;;;;;;;5.92;92.46;99932.84;4454886;32;34954;-71
2022/12/31 03:56:03;;;;;;;3.97;2.30;;;;;;;5.79;92.66;99928.28;4454797;32;34548;-71
2022/12/31 03:58:31;;;;;;;2.83;2.60;;;;;;;5.83;92.67;99935.28;4454915;32;33473;-72
2022/12/31 04:01:00;;;;;;;1.50;1.40;;;;;;;6.01;93.07;99927.00;4454761;32;33923;-71
2022/12/31 04:03:28;;;;;;;0.93;0.93;;;;;;;5.91;91.00;99920.75;4454717;32;35147;-71
2022/12/31 04:05:56;;;;;;;1.50;1.45;;;;;;;5.91;92.59;99910.41;4454794;32;35205;-71
2022/12/31 04:08:25;;;;;;;2.28;2.12;;;;;;;5.98;92.81;99914.00;4454967;32;33147;-71
2022/12/31 04:10:53;;;;;;;1.20;1.20;;;;;;;6.04;91.37;99914.12;4454770;32;34640;-71
2022/12/31 04:13:21;;;;;;;4.62;2.42;;;;;;;6.09;91.08;99909.91;4454757;32;35178;-71
2022/12/31 04:15:50;;;;;;;5.57;3.90;;;;;;;6.13;91.43;99916.00;4454669;32;34423;-71
2022/12/31 04:18:19;;;;;;;2.42;2.03;;;;;;;6.58;88.31;99915.84;4454662;32;33253;-71
2022/12/31 04:20:47;;;;;;;1.80;1.70;;;;;;;6.36;88.89;99924.13;4454648;32;33511;-71
2022/12/31 04:23:15;;;;;;;1.95;1.58;;;;;;;5.98;90.75;99937.28;4454514;32;36018;-71
2022/12/31 04:25:44;;;;;;;2.85;1.90;;;;;;;6.07;90.82;99947.78;4454611;32;35185;-71
2022/12/31 04:28:12;;;;;;;1.27;1.20;;;;;;;5.97;92.59;99945.91;4454575;32;33410;-71
2022/12/31 04:30:40;;;;;;;4.00;2.47;;;;;;;6.10;91.80;99942.66;4454503;32;33877;-71
2022/12/31 04:33:09;;;;;;;0.93;0.93;;;;;;;6.26;91.02;99948.97;4454454;32;35157;-70
2022/12/31 04:35:37;;;;;;;2.03;1.92;;;;;;;5.89;91.28;99954.34;4451066;32;34435;-70
2022/12/31 04:38:05;;;;;;;8.13;3.45;;;;;;;6.03;91.30;99946.00;4438841;32;34505;-70
2022/12/31 04:40:34;;;;;;;1.90;1.80;;;;;;;6.37;89.40;99946.53;4441026;32;33815;-70
2022/12/31 04:43:23;;;;;;;2.58;2.00;;;;;;;6.29;89.56;99961.09;4454238;32;34941;-70
2022/12/31 04:45:51;;;;;;;1.77;1.62;;;;;;;6.06;90.84;99961.56;4454234;32;34413;-69
2022/12/31 04:48:19;;;;;;;1.00;1.00;;;;;;;5.94;91.84;99967.34;4453911;32;33524;-71
2022/12/31 04:50:47;;;;;;;2.60;2.40;;;;;;;6.01;92.09;99968.38;4454237;32;34069;-70
2022/12/31 04:53:16;;;;;;;1.35;1.30;;;;;;;6.17;90.92;99967.78;4454100;32;35061;-70
2022/12/31 04:55:44;;;;;;;8.35;2.05;;;;;;;6.38;89.66;99963.81;4453942;32;35243;-70
2022/12/31 04:58:13;;;;;;;3.28;2.92;;;;;;;6.23;90.22;99969.63;4454123;32;33502;-70
2022/12/31 05:00:41;;;;;;;2.70;2.45;;;;;;;6.21;90.87;99979.94;4453191;32;34855;-71
2022/12/31 05:03:09;;;;;;;2.03;1.90;;;;;;;6.14;90.45;99974.62;4453891;32;35979;-70
2022/12/31 05:05:38;;;;;;;2.05;1.62;;;;;;;6.18;91.40;99979.00;4433795;32;33937;-69
2022/12/31 05:08:07;;;;;;;2.85;2.28;;;;;;;6.29;89.79;99992.13;4438469;32;34332;-69
2022/12/31 05:10:35;;;;;;;4.72;2.28;;;;;;;6.35;89.95;100005.16;4449577;32;34772;-70
2022/12/31 05:13:04;;;;;;;3.37;1.92;;;;;;;6.37;90.01;100001.75;4469428;32;34945;-69
2022/12/31 05:15:32;;;;;;;9.63;1.48;;;;;;;6.38;89.73;100010.37;4468969;32;34579;-75
2022/12/31 05:18:00;;;;;;;6.82;4.03;;;;;;;6.11;91.23;100006.47;4469439;32;33552;-70
2022/12/31 05:20:29;;;;;;;2.42;2.22;;;;;;;6.01;91.91;100012.31;4469065;32;34400;-71
2022/12/31 05:22:57;;;;;;;11.10;2.90;;;;;;;6.57;90.04;100004.66;4469136;32;35128;-71
2022/12/31 05:25:25;;;;;;;2.30;2.12;;;;;;;6.01;90.51;100008.00;4468969;32;35240;-71
2022/12/31 05:27:53;;;;;;;3.35;2.12;;;;;;;6.20;90.49;99998.00;4469320;32;33593;-70
2022/12/31 05:30:23;;;;;;;5.25;3.00;;;;;;;6.54;89.90;100002.00;4467611;32;33803;-70
2022/12/31 05:32:51;;;;;;;5.03;1.30;;;;;;;6.83;88.14;100012.84;4467978;32;35053;-70
2022/12/31 05:35:19;;;;;;;4.22;3.83;;;;;;;6.24;90.91;100023.06;4468757;32;35279;-70
2022/12/31 05:37:48;;;;;;;2.12;1.92;;;;;;;6.25;90.64;100025.69;4468998;32;33469;-70
2022/12/31 05:40:16;;;;;;;3.20;2.25;;;;;;;6.00;92.62;100031.22;4468881;32;34751;-69
2022/12/31 05:42:44;;;;;;;2.15;1.95;;;;;;;5.96;92.34;100027.72;4468856;32;35898;-70
2022/12/31 05:45:12;;;;;;;0.77;0.77;;;;;;;6.41;nan;100036.31;4468682;32;34551;-69
2022/12/31 05:47:41;;;;;;;1.23;1.23;;;;;;;6.64;87.80;100034.97;4468728;32;33549;-70
2022/12/31 05:50:11;;;;;;;1.10;1.00;;;;;;;6.48;88.62;100040.75;4468639;32;34047;-70
2022/12/31 05:52:41;;;;;;;2.90;2.40;;;;;;;6.50;88.48;100041.63;4469164;32;34969;-69
2022/12/31 05:55:14;;;;;;;1.20;1.10;;;;;;;6.26;88.93;100044.66;4468512;32;34438;-71
2022/12/31 05:57:42;;;;;;;3.87;2.40;;;;;;;6.38;89.22;100051.75;4468896;32;33650;-71
2022/12/31 06:00:11;;;;;;;1.83;1.73;;;;;;;5.85;92.38;100052.47;4468467;32;33825;-71
2022/12/31 06:02:40;;;;;;;2.00;1.87;;;;;;;6.35;90.43;100044.81;4468632;32;35985;-71
2022/12/31 06:05:09;;;;;;;2.92;2.67;;;;;;;6.21;90.12;100054.94;4468409;32;35322;-71
2022/12/31 06:07:37;;;;;;;0.98;0.98;;;;;;;6.16;90.57;100055.66;4468578;32;34114;-70
2022/12/31 06:10:05;;;;;;;1.67;1.58;;;;;;;5.80;92.97;100054.09;4468478;32;33983;-71
2022/12/31 06:12:34;;;;;;;1.83;1.27;;;;;;;6.08;90.14;100058.13;4470000;32;35484;-72
2022/12/31 06:15:03;;;;;;;1.15;1.12;;;;;;;6.32;88.57;100064.56;4470927;32;34535;-70
2022/12/31 06:17:31;;;;;;;3.05;1.87;;;;;;;6.14;89.92;100068.59;4439791;32;34345;-71
2022/12/31 06:19:59;;;;;;;1.58;1.48;;;;;;;6.19;88.88;100051.41;4439765;32;34820;-71
2022/12/31 06:22:30;;;;;;;1.65;1.55;;;;;;;5.97;91.15;100051.88;4470562;32;35708;-70
2022/12/31 06:24:58;;;;;;;4.22;2.15;;;;;;;5.92;91.18;100061.22;4470907;32;34506;-71
2022/12/31 06:27:27;;;;;;;3.20;2.42;;;;;;;6.05;90.48;100052.88;4470558;32;34354;-70
2022/12/31 06:29:55;;;;;;;2.37;2.22;;;;;;;5.93;91.12;100052.59;4470923;32;34077;-70
2022/12/31 06:32:23;;;;;;;1.45;1.35;;;;;;;5.59;92.76;100063.13;4470551;32;35273;-71
2022/12/31 06:34:52;;;;;;;2.45;2.20;;;;;;;5.78;92.39;100063.53;4470626;32;34502;-70
2022/12/31 06:37:20;;;;;;;2.92;1.95;;;;;;;5.91;91.80;100059.47;4470550;32;33502;-70
2022/12/31 06:39:48;;;;;;;2.42;2.22;;;;;;;6.55;89.62;100055.53;4470737;32;33790;-70
2022/12/31 06:42:17;;;;;;;1.10;1.10;;;;;;;6.60;87.11;100048.72;4470457;32;34915;-70
2022/12/31 06:44:45;;;;;;;4.03;2.25;;;;;;;5.74;91.94;100062.59;4470672;32;34515;-71
2022/12/31 06:47:13;;;;;;;2.30;2.08;;;;;;;6.03;92.07;100062.31;4470676;32;33670;-71
2022/12/31 06:49:41;;;;;;;2.75;1.98;;;;;;;5.64;93.91;100058.94;4470949;32;33717;-71
2022/12/31 06:52:09;;;;;;;10.65;2.50;;;;;;;5.32;96.57;100053.09;4470355;32;35204;-70
2022/12/31 06:54:38;;;;;;;3.50;3.20;;;;;;;5.65;94.45;100063.28;4470773;32;34541;-71
2022/12/31 06:57:08;;;;;;;2.78;2.55;;;;;;;5.88;93.42;100060.28;4471022;32;33542;-72
2022/12/31 06:59:37;;;;;;;6.07;2.03;;;;;;;5.86;92.84;100059.41;4469860;32;35623;-71
2022/12/31 07:02:29;;;;;;;4.97;4.03;;;;;;;5.43;94.97;100066.25;4470669;32;35075;-70
2022/12/31 07:05:20;;;;;;;4.18;3.00;;;;;;;5.23;96.57;100076.12;4470856;32;35268;-70
2022/12/31 07:08:19;;;;;;;5.15;3.42;;;;;;;5.58;96.05;100076.03;4470867;32;33528;-71
2022/12/31 07:11:15;;;;;;;6.32;2.03;;;;;;;5.65;95.51;100068.44;4469599;32;34816;-70
2022/12/31 07:13:57;;;;;;;3.33;2.95;;;;;;;5.62;95.71;100072.69;4463603;32;34790;-71
2022/12/31 07:16:51;;;;;;;1.62;1.52;;;;;;;5.68;95.14;100071.09;4469687;32;34481;-71
2022/12/31 07:19:44;;;;;;;2.05;1.95;;;;;;;6.07;92.18;100082.22;4470730;32;33486;-70
2022/12/31 07:22:14;;;;;;;4.55;4.15;;;;;;;5.34;96.87;100084.97;4470297;32;33915;-71
2022/12/31 07:24:43;;;;;;;1.85;1.75;;;;;;;5.62;96.68;100083.00;4469488;32;35342;-72
2022/12/31 07:27:30;;;;;;;4.43;2.40;;;;;;;5.29;98.18;100086.59;4469314;32;32770;-71
2022/12/31 07:30:03;;;;;;;5.25;3.05;;;;;;;5.35;100.00;100089.31;4469524;32;32036;-71
2022/12/31 07:32:59;;;;;;;9.27;3.50;;;;;;;5.57;98.29;100087.22;4469570;32;34331;-71
2022/12/31 07:35:33;;;;;;;1.45;1.08;;;;;;;6.19;94.95;100082.44;4469408;32;35053;-71
2022/12/31 07:38:15;;;;;;;2.05;1.90;;;;;;;6.34;93.50;100081.88;4470588;32;35361;-71
2022/12/31 07:40:47;;;;;;;2.50;2.35;;;;;;;6.20;94.61;100097.13;4462939;32;33417;-70
2022/12/31 07:43:27;;;;;;;2.33;1.92;;;;;;;5.93;95.25;100101.72;4454736;32;34135;-69
2022/12/31 07:46:10;;;;;;;12.10;4.35;;;;;;;5.98;96.13;100097.56;4433364;32;34038;-69
2022/12/31 07:48:39;;;;;;;2.80;2.65;;;;;;;5.79;96.57;100097.16;4470117;32;34440;-70
2022/12/31 07:51:10;;;;;;;2.37;1.87;;;;;;;5.77;98.57;100096.25;4470110;32;33744;-69
2022/12/31 07:53:39;;;;;;;2.05;1.10;;;;;;;6.25;94.48;100103.28;4469227;32;33893;-69
2022/12/31 07:56:08;;;;;;;3.25;2.05;;;;;;;5.98;94.71;100106.19;4470002;32;35162;-70
2022/12/31 07:58:39;;;;;;;3.42;2.70;;;;;;;6.25;94.66;100103.28;4456287;32;35285;-71
2022/12/31 08:01:12;;;;;;;14.57;4.00;;;;;;;6.35;94.09;100109.47;4470034;32;34172;-70
2022/12/31 08:03:50;;;;;;;3.30;2.97;;;;;;;6.05;94.80;100131.34;4468996;32;33785;-69
2022/12/31 08:06:31;;;;;;;3.90;3.50;;;;;;;6.08;95.15;100123.62;4469848;32;35826;-70
2022/12/31 08:09:12;;;;;;;7.72;3.55;;;;;;;6.48;94.13;100128.69;4468960;32;34682;-72
2022/12/31 08:11:48;;;;;;;4.10;2.53;;;;;;;6.32;95.93;100149.94;4469082;32;34266;-69
2022/12/31 08:14:17;;;;;;;5.18;4.62;;;;;;;6.10;96.78;100130.53;4468925;32;34699;-70
2022/12/31 08:16:46;;;;;;;6.80;5.28;;;;;;;6.50;95.49;100131.31;4468549;32;35024;-70
2022/12/31 08:19:25;;;;;;;5.12;2.30;;;;;;;6.68;94.51;100135.97;4469922;32;34502;-69
2022/12/31 08:22:26;;;;;;;3.33;2.08;;;;;;;6.55;94.36;100135.72;4470019;32;33370;-70
2022/12/31 08:25:16;;;;;;;5.10;2.78;;;;;;;6.64;93.50;100142.78;4469025;32;34061;-70
2022/12/31 08:28:03;;;;;;;4.90;4.25;;;;;;;6.55;94.51;100160.75;4453120;32;35076;-70
2022/12/31 08:30:39;;;;;;;1.00;1.00;;;;;;;6.82;93.36;100168.12;4453265;32;34480;-70
2022/12/31 08:33:07;;;;;;;4.93;4.53;;;;;;;6.29;95.12;100183.50;4454471;32;34553;-70
2022/12/31 08:36:03;;;;;;;2.28;2.17;;;;;;;6.39;95.62;100188.91;4453320;32;33961;-70
2022/12/31 08:39:23;;;;;;;4.47;1.75;;;;;;;6.05;97.03;100193.37;4453186;32;35112;-69
2022/12/31 08:41:54;;;;;;;2.67;2.53;;;;;;;6.61;95.66;100200.53;4428108;32;34247;-80
2022/12/31 08:44:43;;;;;;;4.20;3.85;;;;;;;6.72;93.53;100199.84;4452799;32;33442;-69
2022/12/31 08:47:22;;;;;;;5.37;4.78;;;;;;;6.69;94.26;100204.97;4429614;32;33811;-69
2022/12/31 08:49:54;;;;;;;17.80;2.05;;;;;;;7.17;90.95;100196.34;4438895;32;35127;-70
2022/12/31 08:52:24;;;;;;;2.87;2.67;;;;;;;6.83;91.95;100204.41;4450633;32;34540;-70
2022/12/31 08:54:53;;;;;;;5.30;3.22;;;;;;;6.55;94.06;100191.78;4454128;32;34378;-70
2022/12/31 08:58:06;;;;;;;6.82;4.45;;;;;;;6.96;93.19;100220.16;4453135;32;33782;-70
2022/12/31 09:00:35;;;;;;;5.05;2.90;;;;;;;6.94;94.19;100229.63;4393533;32;35144;-71
2022/12/31 09:03:29;;;;;;;3.22;1.98;;;;;;;6.74;94.32;100224.03;4448861;32;34347;-71
2022/12/31 09:06:09;;;;;;;39.55;5.87;;;;;;;6.44;93.99;100233.84;4454190;32;34320;-71
2022/12/31 09:08:51;;;;;;;4.00;2.95;;;;;;;6.48;96.41;100205.41;4454114;32;34796;-71
2022/12/31 09:11:49;;;;;;;3.30;2.75;;;;;;;6.49;96.24;100209.78;4440188;32;35538;-71
2022/12/31 09:14:40;;;;;;;5.20;4.18;;;;;;;6.74;94.12;100206.81;4433565;32;34424;-70
2022/12/31 09:17:24;;;;;;;2.22;1.60;;;;;;;6.96;92.75;100189.09;4453404;32;33509;-70
2022/12/31 09:19:52;;;;;;;3.72;3.42;;;;;;;6.89;92.48;100190.69;4453830;32;33867;-70
2022/12/31 09:22:21;;;;;;;1.90;1.73;;;;;;;6.57;94.37;100188.38;4452674;32;35073;-70
2022/12/31 09:24:50;;;;;;;4.57;3.10;;;;;;;6.97;92.66;100188.22;4448308;32;35318;-70
2022/12/31 09:27:27;;;;;;;1.37;1.30;;;;;;;6.63;92.89;100183.31;4438245;32;33648;-70
2022/12/31 09:30:04;;;;;;;2.65;2.47;;;;;;;7.32;90.59;100170.69;4437294;32;34797;-70
2022/12/31 09:32:41;;;;;;;12.63;7.45;;;;;;;7.06;90.25;100166.78;4438086;32;35057;-70
2022/12/31 09:35:32;;;;;;;6.97;4.22;;;;;;;6.89;92.85;100167.38;4444067;32;34388;-70
2022/12/31 09:38:17;;;;;;;2.37;2.17;;;;;;;6.68;94.33;100160.09;4452561;32;33133;-70
2022/12/31 09:41:13;;;;;;;2.35;1.87;;;;;;;7.34;91.68;100166.41;4453376;32;34071;-70
2022/12/31 09:44:02;;;;;;;4.60;2.05;;;;;;;6.80;92.81;100164.66;4453411;32;35163;-70
2022/12/31 09:47:21;;;;;;;2.12;1.92;;;;;;;7.14;93.05;100160.91;4454532;32;34427;-71
2022/12/31 09:50:21;;;;;;;2.28;1.70;;;;;;;7.58;91.48;100152.94;4407252;32;33196;-71
2022/12/31 09:53:17;;;;;;;1.58;1.48;;;;;;;6.71;95.81;100159.31;4454186;32;34624;-71
2022/12/31 09:56:12;;;;;;;4.95;3.08;;;;;;;6.94;94.57;100157.97;4455739;32;35115;-71
2022/12/31 09:58:51;;;;;;;4.60;2.53;;;;;;;7.17;93.27;100135.06;4453980;32;34585;-71
2022/12/31 10:01:38;;;;;;;2.53;1.92;;;;;;;7.42;93.01;100139.75;4454521;32;33401;-71
2022/12/31 10:04:27;;;;;;;5.03;4.65;;;;;;;7.99;89.84;100138.78;4455601;32;34808;-71
2022/12/31 10:07:08;;;;;;;3.40;3.03;;;;;;;7.86;90.93;100147.28;4455624;32;35026;-71
2022/12/31 10:09:51;;;;;;;1.98;1.87;;;;;;;7.90;90.37;100149.06;4455595;32;34132;-71
2022/12/31 10:12:26;;;;;;;2.87;2.65;;;;;;;7.79;91.43;100151.50;4455598;32;33889;-70
2022/12/31 10:15:24;;;;;;;3.72;2.90;;;;;;;7.93;91.55;100149.97;4454329;32;34832;-71
2022/12/31 10:18:05;;;;;;;7.47;4.93;;;;;;;8.47;89.42;100147.16;4435401;32;34522;-71
2022/12/31 10:21:01;;;;;;;3.83;3.53;;;;;;;8.79;87.84;100134.53;4455446;32;35277;-71
2022/12/31 10:24:10;;;;;;;5.18;3.10;;;;;;;8.99;87.69;100133.81;4449876;32;33628;-72
2022/12/31 10:27:08;;;;;;;7.15;6.50;;;;;;;9.08;86.87;100133.91;4431273;32;32299;-72
2022/12/31 10:29:46;;;;;;;3.53;3.25;;;;;;;8.82;89.60;100150.09;4441615;32;34551;-72
2022/12/31 10:32:20;;;;;;;10.43;4.78;;;;;;;9.00;88.01;100145.94;4455432;32;34458;-72
2022/12/31 10:35:14;;;;;;;7.85;5.37;;;;;;;9.10;84.95;100138.22;4455527;32;34306;-72
2022/12/31 10:38:01;;;;;;;8.45;6.80;;;;;;;9.15;85.25;100140.03;4455524;32;33918;-72
2022/12/31 10:40:55;;;;;;;8.75;3.83;;;;;;;9.14;84.17;100128.75;4453972;32;35233;-72
2022/12/31 10:43:35;;;;;;;8.90;2.90;;;;;;;9.00;84.25;100135.53;4455278;32;34427;-72
2022/12/31 10:46:22;;;;;;;6.10;5.40;;;;;;;8.95;84.04;100139.81;4455477;32;34378;-72
2022/12/31 10:49:12;;;;;;;2.92;2.65;;;;;;;9.00;84.89;100139.03;4455047;32;33790;-72
2022/12/31 10:52:01;;;;;;;5.20;4.72;;;;;;;9.30;81.68;100143.59;4455294;32;35113;-72
2022/12/31 10:55:07;;;;;;;10.07;6.10;;;;;;;9.07;82.94;100145.13;4455310;32;34233;-74
2022/12/31 10:57:39;;;;;;;5.32;4.32;;;;;;;9.03;83.71;100138.19;4454698;32;33380;-71
2022/12/31 11:00:17;;;;;;;3.87;3.22;;;;;;;9.35;82.53;100160.94;4455290;32;34678;-72
2022/12/31 11:02:57;;;;;;;3.50;2.97;;;;;;;9.17;83.71;100156.47;4455168;32;35896;-71
2022/12/31 11:06:03;;;;;;;4.60;4.25;;;;;;;9.42;82.09;100123.75;4455080;32;34514;-71
2022/12/31 11:09:19;;;;;;;5.30;4.80;;;;;;;9.36;80.96;100116.78;4455107;32;33820;-71
2022/12/31 11:12:21;;;;;;;3.62;3.12;;;;;;;8.56;84.55;100143.78;4451695;32;33800;-71
2022/12/31 11:15:11;;;;;;;3.67;3.45;;;;;;;8.81;85.40;100132.81;4455084;32;35094;-71
2022/12/31 11:17:55;;;;;;;4.93;4.43;;;;;;;9.23;82.32;100125.34;4455168;32;35322;-71
2022/12/31 11:20:39;;;;;;;4.28;3.97;;;;;;;9.20;82.63;100134.00;4444843;32;33614;-70
2022/12/31 11:23:30;;;;;;;2.95;2.37;;;;;;;9.07;82.14;100119.16;4439324;32;33919;-71
2022/12/31 11:26:04;;;;;;;3.35;2.97;;;;;;;9.18;82.63;100112.31;4438269;32;34993;-70
2022/12/31 11:28:44;;;;;;;7.80;3.92;;;;;;;9.03;84.21;100105.28;4439537;32;35230;-70
2022/12/31 11:31:22;;;;;;;8.98;5.85;;;;;;;9.32;82.83;100109.84;4453556;32;33603;-71
2022/12/31 11:34:06;;;;;;;4.78;4.37;;;;;;;8.97;86.01;100126.03;4453559;32;33900;-71
2022/12/31 11:36:44;;;;;;;2.92;2.60;;;;;;;9.01;84.78;100119.97;4455051;32;35043;-72
2022/12/31 11:39:24;;;;;;;2.95;2.65;;;;;;;9.01;84.74;100108.72;4441054;32;34110;-74
2022/12/31 11:42:06;;;;;;;3.25;2.97;;;;;;;9.36;83.95;100101.19;4454948;32;34242;-73
2022/12/31 11:44:45;;;;;;;2.50;2.28;;;;;;;9.66;82.31;100090.09;4454802;32;33934;-74
2022/12/31 11:47:22;;;;;;;4.12;2.35;;;;;;;9.92;81.10;100084.16;4453464;32;35996;-71
2022/12/31 11:50:19;;;;;;;2.60;1.98;;;;;;;9.62;82.02;100083.12;4454857;32;34501;-73
2022/12/31 11:53:17;;;;;;;2.85;2.65;;;;;;;9.57;83.17;100073.59;4453810;32;33306;-77
2022/12/31 11:56:14;;;;;;;4.50;3.45;;;;;;;9.63;82.73;100095.25;4447834;32;32885;-74
2022/12/31 11:58:46;;;;;;;7.97;4.32;;;;;;;9.95;81.93;100114.50;4453774;32;34973;-75
2022/12/31 12:01:32;;;;;;;3.53;3.20;;;;;;;9.94;79.33;100111.03;4440682;32;35210;-76
2022/12/31 12:04:01;;;;;;;3.83;3.45;;;;;;;10.12;78.81;100127.59;4425703;32;34274;-73
2022/12/31 12:06:31;;;;;;;3.28;3.00;;;;;;;10.29;77.99;100128.50;4438563;32;34692;-76
2022/12/31 12:09:02;;;;;;;24.35;4.43;;;;;;;10.50;77.35;100132.06;4438203;32;35055;-74
2022/12/31 12:11:34;;;;;;;3.80;3.45;;;;;;;10.76;76.50;100130.34;4425613;32;34444;-75
2022/12/31 12:14:25;;;;;;;5.20;3.72;;;;;;;10.39;79.37;100124.22;4438181;32;34519;-76
2022/12/31 12:16:56;;;;;;;3.05;2.85;;;;;;;10.19;80.28;100126.75;4438097;32;33952;-77
2022/12/31 12:19:33;;;;;;;2.03;1.73;;;;;;;10.92;78.51;100122.56;4439327;32;35274;-76
2022/12/31 12:22:17;;;;;;;5.85;4.10;;;;;;;11.74;74.56;100123.34;4454683;32;34410;-75
2022/12/31 12:24:54;;;;;;;5.35;4.85;;;;;;;12.21;73.29;100113.59;4453816;32;33082;-75
2022/12/31 12:27:27;;;;;;;4.80;4.40;;;;;;;12.64;69.26;100111.63;4454719;32;35015;-77